Latest Weather Observations for Terrey Hills

IDN60901

Issued at 7:41 pm EDT Sunday 15 December 2019 (issued every 10 minutes, with the page automatically refreshed every 10 minutes)

About weather observations | Map of Sydney area stations | Latest observations for Sydney area | Other Formats
Station Details ID: 066059 Name: TERREY HILLS AWS Lat: -33.69 Lon: 151.23 Height: 199.0 m
Data from the previous 72 hours. | See also: Recent months at Terrey Hills
Date/Time
EDT
Temp
°C
App
Temp
°C
Dew
Point
°C
Rel
Hum
%
Delta-T
°C
Wind Press
QNH
hPa
Press
MSL
hPa
Rain since
9am
mm
Dir  Spd
km/h
Gust
km/h
Spd
kts
Gust
kts
15/07:30pm 21.7 24.0 19.8 89 1.2 NE 7 15 4 8 - - 0.2
15/07:00pm 22.2 23.6 19.6 85 1.7 ENE 11 17 6 9 - - 0.2
15/06:30pm 22.7 25.0 19.5 82 2.1 ENE 6 11 3 6 - - 0.2
15/06:00pm 23.1 25.1 19.1 78 2.6 NE 7 15 4 8 - - 0.2
15/05:30pm 23.4 25.6 19.3 78 2.6 NE 6 7 3 4 - - 0.2
15/05:00pm 23.2 24.9 19.4 79 2.4 NE 9 17 5 9 - - 0.2
15/04:30pm 22.8 24.5 19.4 81 2.2 NE 9 24 5 13 - - 0.2
15/04:00pm 23.1 24.9 18.8 77 2.7 NE 7 13 4 7 - - 0.2
15/03:30pm 23.0 24.0 18.7 77 2.7 NE 11 20 6 11 - - 0.2
15/03:00pm 23.5 23.5 18.2 72 3.4 NE 15 26 8 14 - - 0.2
15/02:30pm 24.1 25.2 18.1 69 3.8 NNE 9 13 5 7 - - 0.2
15/02:00pm 25.1 26.0 18.3 66 4.3 NE 11 22 6 12 - - 0.2
15/01:30pm 26.0 27.0 18.7 64 4.7 NE 11 24 6 13 - - 0.2
15/01:00pm 26.5 28.4 18.9 63 4.9 NE 7 17 4 9 - - 0.2
15/12:30pm 26.7 28.2 17.5 57 5.8 NNE 6 15 3 8 - - 0.2
15/12:00pm 26.7 27.5 16.3 53 6.5 NNW 7 13 4 7 - - 0.2
15/11:30am 25.8 26.9 17.2 59 5.4 NNE 7 13 4 7 - - 0.2
15/11:00am 24.0 24.7 17.0 65 4.4 N 9 15 5 8 - - 0.2
15/10:30am 23.3 24.8 17.5 70 3.6 N 6 13 3 7 - - 0.2
15/10:00am 22.6 24.1 17.7 74 3.1 N 6 11 3 6 - - 0.2
15/09:30am 21.6 23.5 17.6 78 2.5 NNW 4 9 2 5 - - 0.0
15/09:00am 20.7 22.7 17.9 84 1.7 WNW 4 7 2 4 - - 0.8
15/08:30am 20.3 22.5 18.4 89 1.2 W 4 9 2 5 - - 0.8
15/08:00am 19.7 21.7 18.7 94 0.6 W 6 9 3 5 - - 0.8
15/07:30am 18.9 21.3 18.7 99 0.1 W 4 7 2 4 - - 0.8
15/07:00am 18.3 20.5 18.3 100 0.0 W 4 6 2 3 - - 0.8
15/06:30am 18.2 21.1 18.2 100 0.0 CALM 0 0 0 0 - - 0.8
15/06:00am 18.4 21.4 18.4 100 0.0 CALM 0 0 0 0 - - 0.8
15/05:30am 18.5 21.5 18.5 100 0.0 CALM 0 0 0 0 - - 0.8
15/05:00am 18.6 21.6 18.4 99 0.1 CALM 0 0 0 0 - - 0.8
15/04:30am 18.5 21.1 18.3 99 0.1 NW 2 6 1 3 - - 0.8
15/04:00am 18.7 20.9 18.4 98 0.2 W 4 6 2 3 - - 0.8
15/03:30am 18.9 21.1 18.4 97 0.3 WNW 4 7 2 4 - - 0.8
15/03:00am 19.1 22.1 18.4 96 0.4 CALM 0 2 0 1 - - 0.0
15/02:30am 19.1 20.9 18.4 96 0.4 SE 6 9 3 5 - - 0.0
15/02:00am 19.0 20.3 18.5 97 0.3 ESE 9 15 5 8 - - 0.0
15/01:30am 19.0 20.8 18.2 95 0.5 SE 6 9 3 5 - - 0.0
15/01:00am 19.0 20.5 18.0 94 0.6 SE 7 15 4 8 - - 0.0
15/12:30am 18.9 20.3 17.9 94 0.6 SSE 7 13 4 7 - - 0.0
15/12:00am 18.9 20.6 18.1 95 0.5 SSE 6 11 3 6 - - 0.0
 
Date/Time
EDT
Temp
°C
App
Temp
°C
Dew
Point
°C
Rel
Hum
%
Delta-T
°C
Wind Press
QNH
hPa
Press
MSL
hPa
Rain since
9am
mm
Dir  Spd
km/h
Gust
km/h
Spd
kts
Gust
kts
14/11:30pm 18.9 20.4 18.1 95 0.5 SE 7 11 4 6 - - 0.0
14/11:00pm 19.1 20.0 18.3 95 0.5 SE 11 20 6 11 - - 0.0
14/10:30pm 19.4 20.7 18.4 94 0.6 SSE 9 20 5 11 - - 0.0
14/10:00pm 19.6 20.9 18.4 93 0.8 SE 9 19 5 10 - - 0.0
14/09:30pm 19.7 21.6 18.5 93 0.8 SE 6 13 3 7 - - 0.0
14/09:00pm 19.8 21.1 18.5 92 0.8 SE 9 15 5 8 - - 0.0
14/08:30pm 20.0 21.0 18.7 92 0.8 SE 11 24 6 13 - - 0.0
14/08:00pm 20.3 21.0 18.8 91 0.9 SE 13 24 7 13 - - 0.0
14/07:30pm 20.6 21.2 18.7 89 1.2 SE 13 24 7 13 - - 0.0
14/07:00pm 20.9 22.4 18.8 88 1.3 SE 9 15 5 8 - - 0.0
14/06:30pm 21.2 22.7 18.9 87 1.5 ESE 9 13 5 7 - - 0.0
14/06:00pm 21.1 21.7 18.5 85 1.6 E 13 20 7 11 - - 0.0
14/05:30pm 21.4 21.4 18.0 81 2.1 E 15 22 8 12 - - 0.0
14/05:00pm 21.7 21.5 17.7 78 2.5 E 15 20 8 11 - - 0.0
14/04:30pm 22.3 22.1 17.7 75 2.9 E 15 28 8 15 - - 0.0
14/04:00pm 22.5 21.9 17.6 74 3.1 E 17 26 9 14 - - 0.0
14/03:30pm 23.2 23.0 17.7 71 3.4 E 15 22 8 12 - - 0.0
14/03:00pm 23.9 24.1 18.5 72 3.4 E 15 22 8 12 - - 0.0
14/02:30pm 23.7 23.7 18.1 71 3.5 E 15 28 8 15 - - 0.0
14/02:00pm 24.7 24.4 17.4 64 4.6 E 15 22 8 12 - - 0.0
14/01:30pm 24.1 24.4 17.8 68 4.0 ESE 13 22 7 12 - - 0.0
14/01:00pm 24.4 24.6 17.6 66 4.3 E 13 19 7 10 - - 0.0
14/12:30pm 25.0 25.8 18.2 66 4.3 E 11 19 6 10 - - 0.0
14/12:00pm 24.4 24.7 17.9 67 4.1 ESE 13 19 7 10 - - 0.0
14/11:30am 24.5 25.3 18.2 68 4.0 ESE 11 19 6 10 - - 0.0
14/11:00am 23.7 24.2 14.9 57 5.3 NNW 6 11 3 6 - - 0.0
14/10:30am 23.4 24.3 16.2 64 4.4 NNW 6 13 3 7 - - 0.0
14/10:00am 21.9 23.0 15.7 68 3.7 NNW 4 9 2 5 - - 0.0
14/09:30am 21.2 21.9 15.7 71 3.3 NNW 6 9 3 5 - - 0.0
14/09:00am 21.6 22.9 17.0 75 2.8 N 6 13 3 7 - - 0.0
14/08:30am 20.3 21.4 16.5 79 2.3 NNW 6 11 3 6 - - 0.0
14/08:00am 19.9 21.0 16.7 82 1.9 NW 6 11 3 6 - - 0.0
14/07:30am 18.6 21.0 16.9 90 1.0 CALM 0 0 0 0 - - 0.0
14/07:00am 17.8 20.1 16.7 93 0.7 CALM 0 0 0 0 - - 0.0
14/06:30am 17.2 19.4 16.6 96 0.4 CALM 0 0 0 0 - - 0.0
14/06:00am 16.5 18.4 15.7 95 0.5 CALM 0 0 0 0 - - 0.0
14/05:30am 17.4 19.5 16.3 93 0.7 CALM 0 0 0 0 - - 0.0
14/05:00am 17.7 19.9 16.6 93 0.7 CALM 0 0 0 0 - - 0.0
14/04:30am 17.1 19.1 16.1 94 0.6 CALM 0 0 0 0 - - 0.0
14/04:00am 17.3 19.3 16.0 92 0.8 CALM 0 0 0 0 - - 0.0
14/03:30am 17.1 19.0 15.8 92 0.8 CALM 0 0 0 0 - - 0.0
14/03:00am 17.3 19.3 16.0 92 0.8 CALM 0 0 0 0 - - 0.0
14/02:30am 16.8 18.6 15.5 92 0.8 CALM 0 0 0 0 - - 0.0
14/02:00am 17.8 19.5 16.1 90 1.0 N 2 4 1 2 - - 0.0
14/01:30am 17.8 19.3 15.8 88 1.2 NE 2 4 1 2 - - 0.0
14/01:00am 17.7 18.8 15.7 88 1.2 NE 4 9 2 5 - - 0.0
14/12:30am 18.1 19.2 15.5 85 1.5 NE 4 7 2 4 - - 0.0
14/12:00am 18.4 19.5 15.5 83 1.7 ENE 4 6 2 3 - - 0.0
 
Date/Time
EDT
Temp
°C
App
Temp
°C
Dew
Point
°C
Rel
Hum
%
Delta-T
°C
Wind Press
QNH
hPa
Press
MSL
hPa
Rain since
9am
mm
Dir  Spd
km/h
Gust
km/h
Spd
kts
Gust
kts
13/11:30pm 18.5 19.1 15.4 82 1.8 ENE 6 9 3 5 - - 0.0
13/11:00pm 18.7 20.1 15.4 81 2.0 ENE 2 6 1 3 - - 0.0
13/10:30pm 18.5 19.4 15.2 81 1.9 NE 4 7 2 4 - - 0.0
13/10:00pm 18.5 19.1 15.4 82 1.8 NE 6 15 3 8 - - 0.0
13/09:30pm 18.2 18.9 15.5 84 1.6 ENE 6 13 3 7 - - 0.0
13/09:00pm 17.9 18.6 15.5 86 1.4 ENE 6 13 3 7 - - 0.0
13/08:30pm 17.7 18.2 15.1 85 1.5 ENE 6 7 3 4 - - 0.0
13/08:00pm 18.1 18.1 15.2 83 1.7 E 9 13 5 7 - - 0.0
13/07:30pm 18.4 18.4 15.1 81 1.9 E 9 15 5 8 - - 0.0
13/07:00pm 18.8 18.8 15.1 79 2.2 E 9 15 5 8 - - 0.0
13/06:30pm 19.1 18.6 15.0 77 2.4 E 11 19 6 10 - - 0.0
13/06:00pm 19.3 18.3 14.6 74 2.8 E 13 20 7 11 - - 0.0
13/05:30pm 19.8 18.9 14.8 73 2.9 E 13 24 7 13 - - 0.0
13/05:00pm 20.0 19.1 14.8 72 3.1 E 13 20 7 11 - - 0.0
13/04:30pm 20.4 19.3 15.4 73 3.0 E 15 24 8 13 - - 0.0
13/04:00pm 20.7 19.4 14.8 69 3.5 E 15 22 8 12 - - 0.0
13/03:30pm 21.0 19.4 15.1 69 3.5 E 17 26 9 14 - - 0.0
13/03:00pm 21.2 19.6 15.1 68 3.6 ENE 17 26 9 14 - - 0.0
13/02:30pm 20.4 18.9 14.1 67 3.7 ESE 15 24 8 13 - - 0.0
13/02:00pm 20.1 18.6 14.2 69 3.4 ESE 15 24 8 13 - - 0.0
13/01:30pm 21.2 19.8 14.4 65 4.0 E 15 24 8 13 - - 0.0
13/01:00pm 20.0 19.4 14.6 71 3.2 ESE 11 20 6 11 - - 0.0
13/12:30pm 19.5 18.8 14.3 72 3.0 ESE 11 20 6 11 - - 0.0
13/12:00pm 19.4 18.8 13.6 69 3.3 ESE 9 15 5 8 - - 0.0
13/11:30am 19.2 18.3 13.6 70 3.2 E 11 19 6 10 - - 0.0
13/11:00am 19.7 19.4 13.2 66 3.7 ESE 7 17 4 9 - - 0.0
13/10:30am 19.3 18.8 13.9 71 3.1 ESE 9 15 5 8 - - 0.0
13/10:00am 18.9 19.0 14.0 73 2.8 SE 6 11 3 6 - - 0.0
13/09:30am 18.2 18.5 14.5 79 2.2 SE 6 9 3 5 - - 0.0
13/09:00am 17.7 18.5 14.8 83 1.7 SE 4 7 2 4 - - 0.0
13/08:30am 17.5 18.4 15.0 85 1.5 SSE 4 6 2 3 - - 0.0
13/08:00am 17.1 18.3 14.9 87 1.3 SW 2 4 1 2 - - 0.0
13/07:30am 16.2 17.0 14.7 91 0.9 W 4 6 2 3 - - 0.0
13/07:00am 15.9 16.3 14.8 93 0.6 W 6 7 3 4 - - 0.0
13/06:30am 15.7 16.0 14.6 93 0.6 W 6 7 3 4 - - 0.0
13/06:00am 15.6 15.8 14.3 92 0.7 W 6 7 3 4 - - 0.0
13/05:30am 15.5 16.1 14.2 92 0.7 W 4 6 2 3 - - 0.0
13/05:00am 15.4 15.6 14.1 92 0.7 W 6 7 3 4 - - 0.0
13/04:30am 15.6 15.7 14.0 90 0.9 WSW 6 6 3 3 - - 0.0
13/04:00am 15.8 16.3 14.0 89 1.0 WSW 4 6 2 3 - - 0.0
13/03:30am 15.8 16.6 13.8 88 1.1 WNW 2 4 1 2 - - 0.0
13/03:00am 16.2 17.4 13.7 85 1.4 CALM 0 4 0 2 - - 0.0
13/02:30am 16.5 17.4 12.8 79 2.1 CALM 0 0 0 0 - - 0.0
13/02:00am 16.5 17.6 13.4 82 1.8 CALM 0 4 0 2 - - 0.0
13/01:30am 16.8 17.3 12.9 78 2.2 SSW 2 4 1 2 - - 0.0
13/01:00am 16.9 17.3 12.6 76 2.4 SSE 2 6 1 3 - - 0.0
13/12:30am 16.4 17.4 13.3 82 1.8 CALM 0 0 0 0 - - 0.0
13/12:00am 16.5 16.4 13.4 82 1.8 ESE 6 9 3 5 - - 0.0
 
Date/Time
EDT
Temp
°C
App
Temp
°C
Dew
Point
°C
Rel
Hum
%
Delta-T
°C
Wind Press
QNH
hPa
Press
MSL
hPa
Rain since
9am
mm
Dir  Spd
km/h
Gust
km/h
Spd
kts
Gust
kts
12/11:30pm 16.4 16.9 13.9 85 1.4 S 4 7 2 4 - - 0.0
12/11:00pm 16.5 16.5 14.2 86 1.3 ESE 7 13 4 7 - - 0.0
12/10:30pm 17.4 17.4 13.5 78 2.2 SE 6 7 3 4 - - 0.0
12/10:00pm 17.5 17.4 13.4 77 2.3 SE 6 11 3 6 - - 0.0
12/09:30pm 17.5 17.3 13.6 78 2.2 ESE 7 15 4 8 - - 0.0
12/09:00pm 17.5 16.9 13.6 78 2.2 ESE 9 15 5 8 - - 0.0
12/08:30pm 17.5 16.9 13.6 78 2.2 ESE 9 17 5 9 - - 0.0
12/08:00pm 17.6 16.8 13.9 79 2.1 ESE 11 19 6 10 - - 0.0

Latest Capital City Observations: Canberra | Sydney | Melbourne | Brisbane | Adelaide | Perth | Hobart | Darwin

Other formats

Comma delimited format used in spreadsheet applications
http://www.bom.gov.au/fwo/IDN60901/IDN60901.94759.axf

JavaScript Object Notation format (JSON) in row-major order
http://www.bom.gov.au/fwo/IDN60901/IDN60901.94759.json

Data quality

Most of these data are generated automatically and are frequently updated. Quality checks on data are not normally performed. It is possible for incorrect values to appear. Refer to information at About Latest Weather Observations and please check the disclaimer before using these data.